Time;durP1;ratioP1;P1;durP2;ratioP2;P2;SDS_P1;SDS_P2;PMS_P1;PMS_P2;Temp;Humidity;BMP_temperature;BMP_pressure;BME280_temperature;BME280_humidity;BME280_pressure;Samples;Min_cycle;Max_cycle;Signal;HPM_P1;HPM_P2
2022/05/18 00:02:10;;;;;;;10.63;6.30;;;14.90;89.00;;;;;;5053099;28;20476;-63
2022/05/18 00:04:38;;;;;;;7.33;5.37;;;14.80;88.80;;;;;;5053354;28;20502;-63
2022/05/18 00:07:06;;;;;;;7.80;5.33;;;14.80;88.40;;;;;;5052655;28;20445;-64
2022/05/18 00:09:35;;;;;;;6.90;5.13;;;14.70;88.50;;;;;;5052236;28;20520;-64
2022/05/18 00:12:04;;;;;;;7.90;6.07;;;14.70;89.40;;;;;;5053648;28;20473;-63
2022/05/18 00:14:31;;;;;;;8.03;7.10;;;14.70;89.50;;;;;;5052768;28;20759;-63
2022/05/18 00:17:00;;;;;;;9.87;5.97;;;14.70;89.80;;;;;;5053568;28;20522;-64
2022/05/18 00:19:27;;;;;;;8.30;6.70;;;14.60;90.30;;;;;;5052185;28;20445;-63
2022/05/18 00:21:53;;;;;;;6.30;4.60;;;14.70;90.00;;;;;;5053398;28;20539;-63
2022/05/18 00:24:20;;;;;;;6.70;5.73;;;14.60;89.80;;;;;;5052722;28;20803;-64
2022/05/18 00:26:47;;;;;;;6.77;4.90;;;14.60;89.50;;;;;;5053513;28;20433;-64
2022/05/18 00:29:16;;;;;;;9.03;6.10;;;14.50;89.90;;;;;;5052410;28;20520;-64
2022/05/18 00:31:45;;;;;;;8.17;5.90;;;14.50;89.80;;;;;;5053205;28;20440;-64
2022/05/18 00:34:14;;;;;;;6.27;4.90;;;14.50;90.10;;;;;;5052481;28;20467;-64
2022/05/18 00:36:41;;;;;;;7.90;6.00;;;14.50;90.30;;;;;;5033161;28;20430;-63
2022/05/18 00:39:08;;;;;;;5.60;5.10;;;14.50;90.30;;;;;;5033102;28;21004;-63
2022/05/18 00:41:35;;;;;;;11.90;5.90;;;14.50;89.90;;;;;;5051965;28;20842;-64
2022/05/18 00:44:02;;;;;;;6.27;5.67;;;14.40;88.70;;;;;;5053129;28;20482;-63
2022/05/18 00:46:31;;;;;;;10.30;6.00;;;14.40;90.10;;;;;;5051732;28;20520;-63
2022/05/18 00:48:58;;;;;;;9.10;6.33;;;14.40;90.20;;;;;;5053207;28;20786;-63
2022/05/18 00:51:29;;;;;;;7.80;6.47;;;14.30;90.20;;;;;;5051749;28;20516;-63
2022/05/18 00:54:03;;;;;;;13.40;6.70;;;14.30;90.30;;;;;;5052803;28;20440;-64
2022/05/18 00:56:35;;;;;;;8.87;6.83;;;14.30;90.50;;;;;;5051164;28;20487;-63
2022/05/18 00:59:08;;;;;;;9.33;6.00;;;14.40;90.60;;;;;;5052863;28;20455;-63
2022/05/18 01:01:41;;;;;;;7.87;6.10;;;14.40;90.60;;;;;;5051837;28;20539;-63
2022/05/18 01:04:10;;;;;;;6.90;5.20;;;14.40;90.40;;;;;;5052745;28;20439;-64
2022/05/18 01:06:42;;;;;;;7.30;5.73;;;14.40;90.20;;;;;;5051519;28;20507;-63
2022/05/18 01:09:14;;;;;;;6.73;6.10;;;14.30;90.70;;;;;;5051814;28;20441;-63
2022/05/18 01:11:42;;;;;;;7.00;6.03;;;14.20;90.80;;;;;;5052513;28;20437;-63
2022/05/18 01:14:14;;;;;;;7.83;6.73;;;14.10;90.90;;;;;;5051498;28;20524;-63
2022/05/18 01:16:43;;;;;;;8.87;6.20;;;14.00;91.10;;;;;;5052189;28;20484;-63
2022/05/18 01:19:18;;;;;;;7.03;5.90;;;14.00;91.10;;;;;;5051918;28;20448;-64
2022/05/18 01:21:55;;;;;;;9.87;7.30;;;14.00;91.10;;;;;;5052344;28;20479;-64
2022/05/18 01:24:31;;;;;;;13.43;7.60;;;14.00;90.70;;;;;;5032391;28;20437;-64
2022/05/18 01:27:01;;;;;;;10.27;7.37;;;14.10;90.90;;;;;;5032549;28;20536;-65
2022/05/18 01:29:31;;;;;;;10.30;7.30;;;14.10;90.90;;;;;;5052364;28;20769;-63
2022/05/18 01:32:01;;;;;;;9.07;6.30;;;14.00;90.90;;;;;;5052009;28;20435;-67
2022/05/18 01:34:34;;;;;;;6.20;5.60;;;14.00;90.90;;;;;;5032032;28;20525;-64
2022/05/18 01:37:02;;;;;;;6.50;5.40;;;14.10;91.00;;;;;;5032128;28;20434;-64
2022/05/18 01:39:33;;;;;;;7.73;5.40;;;14.10;91.10;;;;;;5051783;28;20962;-63
2022/05/18 01:42:13;;;;;;;7.50;6.70;;;14.10;91.10;;;;;;5052382;28;20437;-64
2022/05/18 01:44:41;;;;;;;6.53;5.80;;;14.00;91.00;;;;;;5032129;28;20450;-64
2022/05/18 01:47:09;;;;;;;11.80;7.03;;;13.80;91.40;;;;;;5032003;28;20466;-63
2022/05/18 01:49:39;;;;;;;8.53;5.97;;;13.80;91.60;;;;;;5051674;28;20484;-63
2022/05/18 01:52:07;;;;;;;12.53;6.80;;;13.70;91.50;;;;;;5050736;28;20441;-63
2022/05/18 01:54:38;;;;;;;7.43;5.53;;;13.70;91.40;;;;;;5051511;28;20512;-64
2022/05/18 01:57:07;;;;;;;7.83;5.93;;;13.60;91.50;;;;;;5052016;28;20440;-64
2022/05/18 01:59:37;;;;;;;8.47;6.53;;;13.70;91.70;;;;;;5051346;28;21414;-63
2022/05/18 02:02:06;;;;;;;6.23;5.50;;;13.60;91.30;;;;;;5052195;28;20485;-63
2022/05/18 02:04:34;;;;;;;7.47;5.77;;;13.60;91.20;;;;;;5053780;28;20441;-63
2022/05/18 02:07:02;;;;;;;7.17;6.33;;;13.60;91.00;;;;;;5054487;28;20464;-63
2022/05/18 02:09:30;;;;;;;6.63;6.00;;;13.60;91.00;;;;;;5055393;28;20524;-64
2022/05/18 02:11:57;;;;;;;10.13;5.23;;;13.60;91.10;;;;;;5054487;28;20468;-63
2022/05/18 02:14:27;;;;;;;8.83;7.10;;;13.50;90.90;;;;;;5055562;28;20451;-64
2022/05/18 02:16:54;;;;;;;6.93;6.20;;;13.50;91.20;;;;;;5055112;28;20444;-64
2022/05/18 02:19:21;;;;;;;7.77;6.20;;;13.40;91.10;;;;;;5055612;28;20480;-65
2022/05/18 02:21:49;;;;;;;7.60;6.13;;;13.30;91.10;;;;;;5054500;28;20464;-64
2022/05/18 02:24:17;;;;;;;6.07;5.50;;;13.30;90.90;;;;;;5055751;28;20436;-63
2022/05/18 02:26:44;;;;;;;6.40;4.97;;;13.20;90.90;;;;;;5054703;28;20441;-63
2022/05/18 02:29:11;;;;;;;8.13;6.17;;;13.10;91.20;;;;;;5055738;28;20532;-63
2022/05/18 02:31:39;;;;;;;7.53;5.40;;;13.10;91.50;;;;;;5054026;28;20546;-63
2022/05/18 02:34:07;;;;;;;8.03;6.10;;;13.10;91.50;;;;;;5055177;28;20488;-64
2022/05/18 02:36:38;;;;;;;6.70;5.70;;;13.10;91.50;;;;;;5054436;28;20445;-63
2022/05/18 02:39:05;;;;;;;7.90;5.93;;;13.10;91.60;;;;;;5055024;28;20484;-64
2022/05/18 02:41:32;;;;;;;8.10;6.00;;;13.10;91.50;;;;;;5054076;28;20441;-63
2022/05/18 02:44:00;;;;;;;7.00;5.63;;;13.10;91.60;;;;;;5054939;28;20524;-63
2022/05/18 02:46:27;;;;;;;6.23;5.63;;;13.00;91.20;;;;;;5053797;28;20453;-64
2022/05/18 02:48:55;;;;;;;6.03;5.33;;;13.00;91.90;;;;;;5055252;28;20516;-64
2022/05/18 02:51:23;;;;;;;8.80;5.80;;;13.00;91.90;;;;;;5053096;28;20517;-63
2022/05/18 02:53:50;;;;;;;6.47;5.77;;;13.00;92.10;;;;;;5055109;28;20437;-63
2022/05/18 02:56:23;;;;;;;6.03;5.33;;;13.00;92.60;;;;;;5054205;28;20528;-64
2022/05/18 02:58:52;;;;;;;8.98;6.57;;;12.90;92.40;;;;;;5054766;28;20797;-64
2022/05/18 03:01:25;;;;;;;7.50;6.47;;;12.90;92.50;;;;;;5054225;28;20179;-64
2022/05/18 03:03:53;;;;;;;9.52;7.18;;;12.80;92.50;;;;;;5055018;28;20922;-63
2022/05/18 03:06:23;;;;;;;6.73;5.60;;;12.60;92.70;;;;;;5053578;28;20624;-64
2022/05/18 03:08:51;;;;;;;9.43;6.25;;;12.60;92.80;;;;;;5054195;28;20445;-63
2022/05/18 03:11:19;;;;;;;8.40;7.10;;;12.60;92.80;;;;;;5053892;28;20206;-64
2022/05/18 03:13:46;;;;;;;8.10;6.07;;;12.50;93.40;;;;;;5054434;28;20524;-63
2022/05/18 03:16:13;;;;;;;7.20;5.90;;;12.50;93.80;;;;;;5052788;28;20524;-63
2022/05/18 03:18:41;;;;;;;7.23;5.83;;;12.60;93.80;;;;;;5054419;28;20575;-63
2022/05/18 03:24:02;;;;;;;7.97;6.13;;;12.70;93.50;;;;;;5053398;28;20452;-64
2022/05/18 03:26:30;;;;;;;8.13;6.37;;;12.70;93.70;;;;;;5052261;28;20460;-64
2022/05/18 03:28:58;;;;;;;8.30;6.33;;;12.80;93.80;;;;;;5052222;28;20441;-64
2022/05/18 03:31:26;;;;;;;7.93;5.88;;;12.80;93.80;;;;;;5052637;28;20437;-66
2022/05/18 03:33:55;;;;;;;6.00;5.40;;;12.90;93.70;;;;;;5049322;28;20191;-64
2022/05/18 03:36:26;;;;;;;8.00;6.40;;;12.90;93.50;;;;;;5053223;28;20525;-64
2022/05/18 03:38:55;;;;;;;7.90;5.97;;;12.90;93.30;;;;;;5053594;28;20560;-64
2022/05/18 03:41:22;;;;;;;9.43;6.07;;;12.90;92.40;;;;;;5054020;28;20985;-64
2022/05/18 03:43:49;;;;;;;6.43;5.67;;;12.90;92.30;;;;;;5053460;28;20445;-64
2022/05/18 03:46:16;;;;;;;6.93;5.60;;;12.80;92.30;;;;;;5053212;28;20437;-63
2022/05/18 03:48:44;;;;;;;7.10;6.40;;;12.80;92.10;;;;;;5053406;28;20468;-63
2022/05/18 03:51:12;;;;;;;7.17;5.67;;;12.80;92.10;;;;;;5054043;28;20536;-63
2022/05/18 03:53:40;;;;;;;5.63;5.00;;;12.90;92.40;;;;;;5052611;28;20967;-64
2022/05/18 03:56:09;;;;;;;6.60;5.90;;;12.80;92.30;;;;;;5053763;28;20524;-64
2022/05/18 03:58:36;;;;;;;7.80;5.70;;;12.80;92.50;;;;;;5052999;28;20483;-63
2022/05/18 04:01:08;;;;;;;7.20;5.50;;;12.80;92.20;;;;;;5053710;28;20470;-63
2022/05/18 04:03:36;;;;;;;7.00;6.10;;;12.70;92.20;;;;;;5053320;28;20487;-63
2022/05/18 04:06:04;;;;;;;7.73;6.00;;;12.70;92.40;;;;;;5054049;28;20441;-63
2022/05/18 04:08:31;;;;;;;8.73;5.80;;;12.60;92.80;;;;;;5051887;28;20472;-63
2022/05/18 04:10:58;;;;;;;6.00;5.40;;;12.60;92.90;;;;;;5053681;28;20465;-63
2022/05/18 04:13:27;;;;;;;5.68;5.07;;;12.50;92.90;;;;;;5052893;28;20516;-63
2022/05/18 04:15:55;;;;;;;6.95;5.88;;;12.40;93.30;;;;;;5053716;28;20195;-63
2022/05/18 04:18:23;;;;;;;5.15;4.63;;;12.40;92.80;;;;;;5051589;28;20211;-63
2022/05/18 04:20:51;;;;;;;6.20;5.43;;;12.30;92.90;;;;;;5053472;28;20202;-67
2022/05/18 04:23:18;;;;;;;5.20;4.70;;;12.30;93.20;;;;;;5051284;28;20433;-63
2022/05/18 04:25:46;;;;;;;5.10;4.57;;;12.40;93.60;;;;;;5053215;28;20245;-64
2022/05/18 04:28:14;;;;;;;6.10;5.40;;;12.40;93.70;;;;;;5052261;28;20278;-63
2022/05/18 04:30:49;;;;;;;8.52;7.72;;;12.40;94.20;;;;;;5053398;28;20304;-64
2022/05/18 04:33:19;;;;;;;7.57;6.47;;;12.40;94.70;;;;;;5052672;28;20224;-64
2022/05/18 04:35:48;;;;;;;7.38;6.38;;;12.40;94.60;;;;;;5053155;28;20194;-64
2022/05/18 04:38:16;;;;;;;8.33;5.80;;;12.40;95.20;;;;;;5051968;28;20707;-65
2022/05/18 04:40:43;;;;;;;9.80;7.40;;;12.50;95.20;;;;;;5051977;28;20527;-63
2022/05/18 04:43:10;;;;;;;9.85;7.57;;;12.60;95.40;;;;;;5053145;28;20198;-63
2022/05/18 04:45:39;;;;;;;10.60;9.43;;;12.60;95.40;;;;;;5051960;28;20193;-64
2022/05/18 04:48:08;;;;;;;12.60;8.90;;;12.70;95.40;;;;;;5052954;28;20869;-63
2022/05/18 04:50:35;;;;;;;12.13;9.47;;;12.80;95.60;;;;;;5052285;28;20473;-63
2022/05/18 04:53:01;;;;;;;8.63;6.90;;;12.90;95.50;;;;;;5052504;28;20468;-63
2022/05/18 04:55:28;;;;;;;9.47;6.80;;;13.00;95.80;;;;;;5051984;28;20444;-63
2022/05/18 04:58:00;;;;;;;8.83;7.80;;;13.00;96.20;;;;;;5052690;28;20436;-64
2022/05/18 05:00:28;;;;;;;7.40;6.07;;;13.10;96.30;;;;;;5051125;28;20512;-63
2022/05/18 05:02:57;;;;;;;8.30;6.43;;;13.20;96.20;;;;;;5052623;28;20792;-64
2022/05/18 05:05:27;;;;;;;10.73;7.10;;;13.20;96.20;;;;;;5047897;28;20432;-65
2022/05/18 05:07:54;;;;;;;8.17;6.43;;;13.30;96.30;;;;;;5046599;28;20433;-63
2022/05/18 05:10:22;;;;;;;6.60;5.80;;;13.40;96.40;;;;;;5049336;28;20522;-64
2022/05/18 05:12:49;;;;;;;10.60;7.77;;;13.50;96.90;;;;;;5048288;28;20451;-65
2022/05/18 05:15:16;;;;;;;7.93;6.10;;;13.70;97.00;;;;;;5050347;28;20439;-64
2022/05/18 05:17:43;;;;;;;11.63;7.77;;;13.80;97.00;;;;;;5048113;28;20990;-63
2022/05/18 05:20:11;;;;;;;9.90;6.90;;;14.00;97.20;;;;;;5048112;28;20573;-63
2022/05/18 05:22:40;;;;;;;11.00;8.30;;;14.10;97.10;;;;;;5050607;28;20440;-63
2022/05/18 05:25:08;;;;;;;8.20;7.07;;;14.20;97.20;;;;;;5049890;28;20471;-67
2022/05/18 05:27:40;;;;;;;7.90;6.93;;;14.30;97.20;;;;;;5049904;28;20947;-63
2022/05/18 05:30:08;;;;;;;6.63;6.00;;;14.50;97.20;;;;;;5049140;28;20476;-63
2022/05/18 05:32:35;;;;;;;6.83;6.13;;;14.60;96.90;;;;;;5050454;28;20448;-64
2022/05/18 05:35:03;;;;;;;8.80;6.50;;;14.70;96.70;;;;;;5048644;28;20445;-64
2022/05/18 05:37:30;;;;;;;6.67;5.80;;;14.80;96.50;;;;;;5047115;28;20478;-65
2022/05/18 05:39:59;;;;;;;10.40;7.10;;;14.90;96.50;;;;;;5052114;28;20534;-65
2022/05/18 05:42:26;;;;;;;6.10;5.50;;;15.00;96.60;;;;;;5050705;28;20923;-64
2022/05/18 05:44:53;;;;;;;6.83;5.90;;;15.10;96.40;;;;;;5054565;28;20437;-64
2022/05/18 05:47:20;;;;;;;6.40;5.80;;;15.20;96.20;;;;;;5054639;28;20822;-63
2022/05/18 05:49:47;;;;;;;6.73;5.30;;;15.30;95.50;;;;;;5054721;28;20867;-64
2022/05/18 05:52:15;;;;;;;6.77;5.90;;;15.40;95.10;;;;;;5054475;28;20428;-65
2022/05/18 05:54:43;;;;;;;7.97;6.37;;;15.50;95.20;;;;;;5054708;28;20935;-65
2022/05/18 05:57:23;;;;;;;7.63;6.53;;;15.60;95.40;;;;;;5054428;28;20530;-64
2022/05/18 05:59:50;;;;;;;6.93;5.90;;;15.70;95.10;;;;;;5050532;28;20488;-64
2022/05/18 06:02:19;;;;;;;6.07;5.43;;;15.80;95.20;;;;;;5054459;28;20463;-63
2022/05/18 06:04:48;;;;;;;13.37;5.70;;;15.90;95.40;;;;;;5053845;28;20443;-65
2022/05/18 06:07:15;;;;;;;9.00;6.80;;;16.00;95.50;;;;;;5054499;28;20437;-65
2022/05/18 06:09:42;;;;;;;7.33;6.60;;;16.10;95.60;;;;;;5054142;28;20919;-65
2022/05/18 06:12:10;;;;;;;7.97;6.03;;;16.30;95.30;;;;;;5053856;28;20440;-65
2022/05/18 06:14:43;;;;;;;10.83;6.17;;;16.40;94.80;;;;;;5053237;28;20437;-64
2022/05/18 06:17:10;;;;;;;7.70;5.90;;;16.50;94.40;;;;;;5054191;28;20449;-63
2022/05/18 06:19:37;;;;;;;10.03;6.20;;;16.50;94.00;;;;;;5053635;28;20571;-64
2022/05/18 06:22:05;;;;;;;7.37;6.67;;;16.70;94.30;;;;;;5053283;28;20440;-64
2022/05/18 06:24:32;;;;;;;8.30;6.30;;;16.80;95.10;;;;;;5053925;28;20445;-68
2022/05/18 06:27:00;;;;;;;8.27;7.00;;;16.90;95.20;;;;;;5053755;28;20523;-64
2022/05/18 06:29:27;;;;;;;9.07;6.40;;;17.10;95.40;;;;;;5052067;28;20945;-64
2022/05/18 06:31:56;;;;;;;8.90;6.70;;;17.30;95.50;;;;;;5046883;28;20433;-65
2022/05/18 06:34:23;;;;;;;7.63;5.60;;;17.50;95.50;;;;;;5053207;28;20445;-64
2022/05/18 06:36:51;;;;;;;7.43;5.20;;;17.60;94.90;;;;;;5054288;28;20800;-64
2022/05/18 06:39:19;;;;;;;6.40;5.80;;;17.70;94.30;;;;;;5053447;28;20579;-64
2022/05/18 06:41:47;;;;;;;7.30;5.90;;;17.90;94.60;;;;;;5052701;28;20507;-64
2022/05/18 06:44:14;;;;;;;6.10;5.50;;;18.00;94.30;;;;;;5054239;28;20515;-63
2022/05/18 06:46:41;;;;;;;6.60;5.70;;;18.10;94.10;;;;;;5054039;28;20891;-64
2022/05/18 06:49:12;;;;;;;6.47;5.43;;;18.20;93.80;;;;;;5053436;28;20849;-64
2022/05/18 06:51:42;;;;;;;6.30;5.53;;;18.30;94.00;;;;;;5054106;28;20540;-64
2022/05/18 06:54:09;;;;;;;7.20;5.00;;;18.50;94.00;;;;;;5053870;28;20526;-64
2022/05/18 06:56:38;;;;;;;7.80;6.30;;;18.60;93.60;;;;;;5053852;28;20927;-64
2022/05/18 06:59:06;;;;;;;6.77;5.87;;;18.80;93.30;;;;;;5053294;28;20485;-64
2022/05/18 07:01:33;;;;;;;7.73;5.40;;;18.90;93.20;;;;;;5053740;28;20469;-65
2022/05/18 07:04:00;;;;;;;12.10;4.57;;;19.10;93.10;;;;;;5053717;28;20440;-64
2022/05/18 07:06:32;;;;;;;8.67;6.17;;;19.20;92.70;;;;;;5050394;28;20445;-64
2022/05/18 07:08:59;;;;;;;7.77;5.20;;;19.30;92.60;;;;;;5053408;28;20527;-64
2022/05/18 07:11:27;;;;;;;7.33;5.87;;;19.40;92.20;;;;;;5050042;28;20444;-64
2022/05/18 07:13:58;;;;;;;7.97;4.60;;;19.60;92.00;;;;;;5053827;28;20516;-64
2022/05/18 07:16:27;;;;;;;8.70;4.87;;;19.70;91.90;;;;;;5053794;28;20449;-64
2022/05/18 07:18:55;;;;;;;9.40;4.47;;;19.80;91.60;;;;;;5054394;28;20484;-64
2022/05/18 07:21:23;;;;;;;5.83;4.73;;;19.90;91.00;;;;;;5054746;28;20820;-64
2022/05/18 07:23:51;;;;;;;7.03;4.50;;;20.10;90.30;;;;;;5054883;28;20804;-64
2022/05/18 07:26:19;;;;;;;5.03;4.20;;;20.20;87.50;;;;;;5054769;28;20527;-64
2022/05/18 07:28:47;;;;;;;5.30;4.13;;;20.30;88.10;;;;;;5054839;28;20443;-65
2022/05/18 07:31:14;;;;;;;7.17;5.00;;;20.50;87.30;;;;;;5054487;28;20439;-64
2022/05/18 07:33:41;;;;;;;5.60;4.00;;;20.60;85.80;;;;;;5054928;28;20532;-65
2022/05/18 07:36:08;;;;;;;6.87;3.90;;;20.70;84.70;;;;;;5054781;28;20448;-63
2022/05/18 07:38:37;;;;;;;7.10;3.60;;;20.90;84.30;;;;;;5054516;28;20441;-64
2022/05/18 07:41:05;;;;;;;7.50;3.90;;;21.00;80.20;;;;;;5054532;28;20516;-64
2022/05/18 07:43:32;;;;;;;5.47;4.40;;;21.20;80.90;;;;;;5054665;28;20437;-64
2022/05/18 07:45:59;;;;;;;5.10;3.90;;;21.30;79.40;;;;;;5054463;28;20523;-64
2022/05/18 07:48:26;;;;;;;5.70;4.00;;;21.40;78.50;;;;;;5054350;28;20470;-64
2022/05/18 07:50:53;;;;;;;5.40;3.90;;;21.60;76.10;;;;;;5054090;28;20540;-65
2022/05/18 07:53:21;;;;;;;8.20;4.63;;;21.70;73.80;;;;;;5054298;28;20437;-65
2022/05/18 07:55:48;;;;;;;5.80;4.03;;;21.80;75.20;;;;;;5054292;28;20468;-64
2022/05/18 07:58:19;;;;;;;8.10;4.37;;;22.00;74.80;;;;;;5054007;28;20527;-64
2022/05/18 08:00:47;;;;;;;6.50;4.17;;;22.10;76.00;;;;;;5053962;28;20567;-64
2022/05/18 08:03:15;;;;;;;6.00;4.10;;;22.30;76.20;;;;;;5053894;28;20528;-64
2022/05/18 08:05:43;;;;;;;5.43;4.00;;;22.50;77.50;;;;;;5054102;28;20444;-64
2022/05/18 08:08:12;;;;;;;4.87;3.73;;;22.60;73.50;;;;;;5054144;28;20465;-64
2022/05/18 08:16:12;;;;;;;5.73;4.40;;;23.10;71.80;;;;;;5054220;28;20407;-65
2022/05/18 08:18:45;;;;;;;6.40;4.73;;;23.30;70.80;;;;;;5053989;28;20441;-64
2022/05/18 08:21:12;;;;;;;5.00;4.07;;;23.40;67.20;;;;;;5053964;28;20516;-64
2022/05/18 08:23:39;;;;;;;6.20;4.30;;;23.60;67.10;;;;;;5053311;28;20532;-65
2022/05/18 08:26:07;;;;;;;6.13;3.90;;;23.70;61.50;;;;;;5054035;28;20444;-65
2022/05/18 08:28:36;;;;;;;6.97;5.07;;;23.80;60.50;;;;;;5053734;28;20436;-65
2022/05/18 08:31:04;;;;;;;7.03;4.40;;;23.80;61.90;;;;;;5053575;28;20440;-64
2022/05/18 08:33:32;;;;;;;4.63;4.13;;;23.90;61.30;;;;;;5053436;28;20439;-65
2022/05/18 08:35:59;;;;;;;5.47;3.57;;;23.90;58.10;;;;;;5053374;28;20920;-65
2022/05/18 08:38:26;;;;;;;5.50;4.33;;;24.00;60.60;;;;;;5053134;28;20438;-65
2022/05/18 08:40:58;;;;;;;5.10;3.70;;;24.10;59.60;;;;;;5053419;28;20488;-65
2022/05/18 08:43:28;;;;;;;4.10;3.43;;;24.20;58.60;;;;;;5053451;28;20444;-65
2022/05/18 08:46:03;;;;;;;4.10;3.20;;;24.30;58.90;;;;;;5053292;28;20438;-65
2022/05/18 08:48:42;;;;;;;8.00;3.93;;;24.40;58.30;;;;;;5053074;28;20547;-65
2022/05/18 08:51:24;;;;;;;5.57;4.00;;;24.60;59.20;;;;;;5053216;28;20680;-65
2022/05/18 08:54:03;;;;;;;5.07;4.07;;;24.70;57.90;;;;;;5053046;28;20436;-66
2022/05/18 08:56:34;;;;;;;4.50;3.60;;;24.80;57.60;;;;;;5053331;28;20930;-65
2022/05/18 08:59:04;;;;;;;6.77;4.27;;;24.90;55.50;;;;;;5053294;28;20552;-65
2022/05/18 09:01:40;;;;;;;12.47;6.20;;;25.10;56.40;;;;;;5053229;28;20445;-65
2022/05/18 09:04:10;;;;;;;5.50;3.40;;;25.20;56.20;;;;;;5052611;28;20430;-65
2022/05/18 09:06:41;;;;;;;4.23;3.20;;;25.30;55.30;;;;;;5052690;28;20480;-65
2022/05/18 09:11:58;;;;;;;3.33;2.40;;;25.50;53.00;;;;;;5053148;28;20759;-65
2022/05/18 09:14:28;;;;;;;4.00;3.00;;;25.60;51.10;;;;;;5052722;28;20445;-65
2022/05/18 09:17:05;;;;;;;3.83;2.77;;;25.70;48.70;;;;;;5053001;28;20440;-65
2022/05/18 09:19:39;;;;;;;6.03;2.87;;;25.60;44.10;;;;;;5052794;28;20479;-65
2022/05/18 09:22:21;;;;;;;5.37;2.83;;;25.60;46.20;;;;;;5052912;28;20474;-65
2022/05/18 09:24:59;;;;;;;3.73;2.10;;;25.70;48.50;;;;;;5052420;28;20443;-68
2022/05/18 09:27:45;;;;;;;3.97;2.80;;;25.80;48.50;;;;;;5052804;28;20442;-65
2022/05/18 09:30:18;;;;;;;4.77;2.90;;;26.00;45.80;;;;;;5052654;28;20445;-65
2022/05/18 09:33:13;;;;;;;6.90;3.03;;;26.00;45.20;;;;;;5052706;28;20836;-65
2022/05/18 09:36:09;;;;;;;4.20;2.10;;;26.00;45.20;;;;;;5052481;28;20649;-65
2022/05/18 09:38:40;;;;;;;3.07;2.20;;;26.20;44.40;;;;;;5052665;28;20436;-65
2022/05/18 09:41:11;;;;;;;3.73;2.70;;;26.30;44.70;;;;;;5052360;28;20567;-65
2022/05/18 09:43:48;;;;;;;3.00;2.10;;;26.40;42.30;;;;;;5052772;28;20540;-65
2022/05/18 09:46:21;;;;;;;5.00;2.30;;;26.40;40.40;;;;;;5052582;28;20918;-65
2022/05/18 09:48:53;;;;;;;2.90;1.90;;;26.40;43.10;;;;;;5052792;28;20846;-66
2022/05/18 09:51:22;;;;;;;3.63;2.20;;;26.50;44.70;;;;;;5052499;28;20877;-66
2022/05/18 09:53:50;;;;;;;4.13;2.33;;;26.60;41.70;;;;;;5052504;28;20770;-65
2022/05/18 09:56:23;;;;;;;5.43;2.97;;;26.70;42.00;;;;;;5052511;28;20524;-66
2022/05/18 09:58:52;;;;;;;5.20;2.90;;;26.80;42.00;;;;;;5052037;28;20418;-65
2022/05/18 10:09:53;;;;;;;5.27;2.83;;;27.10;39.00;;;;;;5052464;28;20774;-65
2022/05/18 10:12:26;;;;;;;4.30;2.37;;;27.10;41.10;;;;;;5052549;28;20515;-66
2022/05/18 10:15:02;;;;;;;4.13;2.47;;;27.20;41.40;;;;;;5052429;28;20903;-65
2022/05/18 10:17:33;;;;;;;4.00;2.33;;;27.20;40.00;;;;;;5052531;28;20510;-65
2022/05/18 10:20:06;;;;;;;3.20;2.43;;;27.30;40.30;;;;;;5052310;28;20550;-65
2022/05/18 10:22:39;;;;;;;5.73;2.10;;;27.40;39.30;;;;;;5052157;28;20454;-65
2022/05/18 10:25:10;;;;;;;3.57;2.47;;;27.40;37.90;;;;;;5053509;28;20480;-65
2022/05/18 10:27:39;;;;;;;4.93;2.03;;;27.40;38.00;;;;;;5055840;28;20973;-65
2022/05/18 10:30:10;;;;;;;4.10;1.80;;;27.40;36.90;;;;;;5055954;28;20482;-65
2022/05/18 10:32:52;;;;;;;3.20;2.00;;;27.40;36.00;;;;;;5056038;28;20937;-65
2022/05/18 10:35:47;;;;;;;4.10;1.57;;;27.40;37.00;;;;;;5055870;28;20490;-65
2022/05/18 10:38:21;;;;;;;3.00;1.80;;;27.50;36.70;;;;;;5055735;28;20463;-64
2022/05/18 10:40:48;;;;;;;4.00;2.30;;;27.60;39.20;;;;;;5055734;28;20830;-66
2022/05/18 10:43:31;;;;;;;9.93;2.77;;;27.60;38.10;;;;;;5055664;28;20437;-64
2022/05/18 10:46:04;;;;;;;3.57;2.23;;;27.70;38.10;;;;;;5055493;28;20985;-65
2022/05/18 10:48:33;;;;;;;3.03;2.00;;;27.70;40.00;;;;;;5055636;28;20504;-65
2022/05/18 10:51:07;;;;;;;6.10;1.83;;;27.90;39.50;;;;;;5055435;28;20432;-65
2022/05/18 10:53:38;;;;;;;2.47;1.63;;;28.00;35.90;;;;;;5054601;28;20479;-66
2022/05/18 10:56:35;;;;;;;6.30;1.73;;;28.00;37.80;;;;;;5055591;28;20531;-65
2022/05/18 10:59:21;;;;;;;3.90;1.70;;;28.00;37.40;;;;;;5054624;28;20433;-65
2022/05/18 11:01:59;;;;;;;2.23;1.23;;;28.10;35.50;;;;;;5054969;28;20487;-65
2022/05/18 11:04:32;;;;;;;3.73;1.67;;;28.00;34.20;;;;;;5055412;28;20768;-66
2022/05/18 11:07:00;;;;;;;3.50;1.60;;;28.00;35.90;;;;;;5054776;28;20790;-65
2022/05/18 11:09:31;;;;;;;4.20;2.03;;;28.10;38.90;;;;;;5053994;28;20862;-66
2022/05/18 11:12:07;;;;;;;5.47;1.63;;;28.10;37.60;;;;;;5055385;28;20539;-65
2022/05/18 11:14:47;;;;;;;2.40;1.60;;;28.10;34.70;;;;;;5054107;28;20481;-65
2022/05/18 11:17:29;;;;;;;2.67;1.50;;;28.10;33.20;;;;;;5051219;28;20927;-65
2022/05/18 11:20:07;;;;;;;2.73;1.57;;;28.20;36.10;;;;;;5053453;28;20476;-65
2022/05/18 11:22:52;;;;;;;3.00;1.67;;;28.20;33.10;;;;;;5054302;28;20440;-65
2022/05/18 11:25:28;;;;;;;3.17;1.50;;;28.20;35.40;;;;;;5053331;28;20476;-65
2022/05/18 11:28:03;;;;;;;3.33;1.47;;;28.20;34.20;;;;;;5054836;28;20436;-64
2022/05/18 11:30:40;;;;;;;2.70;1.87;;;28.20;36.90;;;;;;5035227;28;20456;-65
2022/05/18 11:33:17;;;;;;;2.50;1.53;;;28.20;37.40;;;;;;5035512;28;20477;-66
2022/05/18 11:35:54;;;;;;;2.37;1.47;;;28.30;37.50;;;;;;5054429;28;20499;-65
2022/05/18 11:38:47;;;;;;;2.70;1.70;;;28.30;31.90;;;;;;5053319;28;20483;-66
2022/05/18 11:41:26;;;;;;;3.33;1.40;;;28.30;33.60;;;;;;5034099;28;20626;-65
2022/05/18 11:44:00;;;;;;;3.70;1.57;;;28.30;36.60;;;;;;5051365;28;20440;-66
2022/05/18 11:46:47;;;;;;;2.73;1.43;;;28.40;38.80;;;;;;5053968;28;20445;-66
2022/05/18 11:49:20;;;;;;;3.77;1.60;;;28.40;34.90;;;;;;5053974;28;20472;-65
2022/05/18 11:52:10;;;;;;;3.53;1.40;;;28.40;37.10;;;;;;5053897;28;20443;-67
2022/05/18 11:54:56;;;;;;;3.00;1.20;;;28.40;36.20;;;;;;5053863;28;20528;-65
2022/05/18 11:57:40;;;;;;;2.80;1.30;;;28.40;36.00;;;;;;5052916;28;20448;-65
2022/05/18 12:00:14;;;;;;;4.57;1.30;;;28.50;35.70;;;;;;5053590;28;20471;-65
2022/05/18 12:03:20;;;;;;;2.63;1.43;;;28.40;34.10;;;;;;5052435;28;20955;-65
2022/05/18 12:06:02;;;;;;;5.83;1.50;;;28.40;34.90;;;;;;5035760;28;20518;-66
2022/05/18 12:08:56;;;;;;;5.00;1.50;;;28.50;35.10;;;;;;5047738;28;20441;-65
2022/05/18 12:11:36;;;;;;;4.20;3.20;;;28.40;35.10;;;;;;5053128;28;20441;-65
2022/05/18 12:14:16;;;;;;;3.63;1.93;;;28.50;36.40;;;;;;5051456;28;20440;-68
2022/05/18 12:16:52;;;;;;;3.20;1.70;;;28.50;35.10;;;;;;5051628;28;20529;-65
2022/05/18 12:19:24;;;;;;;5.03;2.10;;;28.50;32.50;;;;;;5053988;28;20536;-65
2022/05/18 12:21:55;;;;;;;2.50;1.47;;;28.40;33.00;;;;;;5053565;28;20490;-65
2022/05/18 12:24:24;;;;;;;2.87;1.50;;;28.40;33.70;;;;;;5053730;28;20468;-65
2022/05/18 12:26:53;;;;;;;2.13;1.27;;;28.50;34.10;;;;;;5053526;28;20512;-69
2022/05/18 12:29:23;;;;;;;2.90;1.20;;;28.50;34.40;;;;;;5053828;28;20445;-66
2022/05/18 12:31:51;;;;;;;2.87;1.67;;;28.50;33.00;;;;;;5053257;28;20533;-66
2022/05/18 12:34:24;;;;;;;5.67;1.60;;;28.50;33.40;;;;;;5053748;28;20511;-65
2022/05/18 12:36:56;;;;;;;2.53;1.67;;;28.40;30.30;;;;;;5053362;28;20445;-65
2022/05/18 12:39:40;;;;;;;2.60;1.60;;;28.30;33.50;;;;;;5053276;28;20527;-65
2022/05/18 12:42:11;;;;;;;2.57;1.67;;;28.30;33.50;;;;;;5053538;28;20527;-65
2022/05/18 12:44:41;;;;;;;3.80;1.73;;;28.30;33.40;;;;;;5053650;28;20531;-65
2022/05/18 12:47:20;;;;;;;2.37;1.37;;;28.20;33.50;;;;;;5052774;28;20470;-64
2022/05/18 12:49:56;;;;;;;2.40;1.33;;;28.10;34.40;;;;;;5053387;28;20765;-67
2022/05/18 12:52:45;;;;;;;2.53;1.60;;;28.10;32.30;;;;;;5053132;28;20970;-65
2022/05/18 12:55:37;;;;;;;3.60;1.57;;;28.00;32.60;;;;;;5053459;28;20535;-65
2022/05/18 12:58:25;;;;;;;2.57;1.30;;;28.00;31.70;;;;;;5052960;28;20476;-65
2022/05/18 13:01:00;;;;;;;2.60;1.90;;;27.90;32.70;;;;;;5053137;28;20908;-65
2022/05/18 13:04:05;;;;;;;2.23;1.20;;;27.90;34.70;;;;;;5052696;28;20440;-65
2022/05/18 13:06:46;;;;;;;2.70;1.90;;;27.90;31.70;;;;;;5028499;28;20527;-65
2022/05/18 13:09:34;;;;;;;2.23;1.40;;;27.90;33.40;;;;;;5052893;28;20873;-65
2022/05/18 13:12:12;;;;;;;4.07;2.10;;;27.90;32.70;;;;;;5053008;28;20441;-64
2022/05/18 13:14:44;;;;;;;2.93;1.40;;;27.80;34.50;;;;;;5052987;28;20834;-65
2022/05/18 13:17:20;;;;;;;4.50;1.80;;;27.80;34.90;;;;;;5052993;28;20446;-65
2022/05/18 13:20:05;;;;;;;2.70;1.93;;;27.80;32.20;;;;;;5053224;28;20518;-65
2022/05/18 13:22:56;;;;;;;2.83;1.83;;;27.80;34.00;;;;;;5051897;28;20498;-64
2022/05/18 13:25:28;;;;;;;2.50;1.30;;;27.80;32.30;;;;;;5052848;28;20491;-65
2022/05/18 13:27:57;;;;;;;3.60;1.43;;;27.80;32.00;;;;;;5052876;28;20532;-65